Time;durP1;ratioP1;P1;durP2;ratioP2;P2;SDS_P1;SDS_P2;PMS_P1;PMS_P2;Temp;Humidity;BMP_temperature;BMP_pressure;BME280_temperature;BME280_humidity;BME280_pressure;Samples;Min_cycle;Max_cycle;Signal;HPM_P1;HPM_P2
2024/02/29 00:02:13;;;;;;;12.75;6.18;;;0.30;92.50;;;;;;5091511;28;20492;-82
2024/02/29 00:04:39;;;;;;;14.18;5.40;;;0.30;92.60;;;;;;5081836;28;20027;-81
2024/02/29 00:07:05;;;;;;;11.10;4.90;;;0.20;92.60;;;;;;5093489;28;20500;-82
2024/02/29 00:09:31;;;;;;;15.73;6.55;;;0.20;92.70;;;;;;5091690;28;20027;-81
2024/02/29 00:11:57;;;;;;;9.25;6.55;;;0.20;92.70;;;;;;5083267;28;20020;-83
2024/02/29 00:14:23;;;;;;;13.70;5.93;;;0.20;92.70;;;;;;5093927;28;20020;-82
2024/02/29 00:16:50;;;;;;;12.18;6.47;;;0.20;92.70;;;;;;5082374;28;20078;-83
2024/02/29 00:19:16;;;;;;;9.98;4.70;;;0.30;92.70;;;;;;5086264;28;20434;-82
2024/02/29 00:21:41;;;;;;;13.30;6.80;;;0.30;92.70;;;;;;5092574;28;20021;-81
2024/02/29 00:24:08;;;;;;;16.58;5.85;;;0.20;92.60;;;;;;5084611;28;20028;-83
2024/02/29 00:26:34;;;;;;;8.35;5.13;;;0.20;92.60;;;;;;5092471;28;20023;-82
2024/02/29 00:29:03;;;;;;;32.03;6.13;;;0.30;92.60;;;;;;5087379;28;20058;-82
2024/02/29 00:31:29;;;;;;;16.10;5.75;;;0.30;92.60;;;;;;5092334;28;20028;-81
2024/02/29 00:33:55;;;;;;;18.27;6.32;;;0.20;92.50;;;;;;5091031;28;20037;-81
2024/02/29 00:36:20;;;;;;;11.00;5.88;;;0.20;92.60;;;;;;5092773;28;20056;-82
2024/02/29 00:38:47;;;;;;;13.05;8.63;;;0.20;92.60;;;;;;5091737;28;20075;-81
2024/02/29 00:41:14;;;;;;;17.07;5.70;;;0.20;92.60;;;;;;5095420;28;20020;-81
2024/02/29 00:43:40;;;;;;;;;;;0.20;92.60;;;;;;5092615;28;20848;-81
2024/02/29 00:46:06;;;;;;;14.50;4.95;;;0.20;92.60;;;;;;5082190;28;19904;-81
2024/02/29 00:48:32;;;;;;;11.73;4.40;;;0.10;92.60;;;;;;5086039;28;20024;-83
2024/02/29 00:50:58;;;;;;;9.52;4.90;;;0.10;92.60;;;;;;5090689;28;20016;-82
2024/02/29 00:53:24;;;;;;;15.80;7.65;;;0.10;92.60;;;;;;5091625;28;20031;-83
2024/02/29 00:55:50;;;;;;;15.90;6.68;;;0.10;92.70;;;;;;5091233;28;20027;-83
2024/02/29 00:58:16;;;;;;;9.80;4.47;;;0.10;92.70;;;;;;5091093;28;20107;-82
2024/02/29 01:00:41;;;;;;;16.30;5.50;;;0.10;92.70;;;;;;5085125;28;20106;-82
2024/02/29 01:03:07;;;;;;;13.65;5.68;;;0.10;92.80;;;;;;5084039;28;20040;-82
2024/02/29 01:05:33;;;;;;;13.00;5.60;;;0.00;92.70;;;;;;5091981;28;20392;-81
2024/02/29 01:07:59;;;;;;;15.27;5.40;;;0.00;92.70;;;;;;5091764;28;20020;-80
2024/02/29 01:10:25;;;;;;;10.23;6.13;;;0.10;92.80;;;;;;5090888;28;20108;-82
2024/02/29 01:12:51;;;;;;;9.48;5.75;;;0.10;92.70;;;;;;5090125;28;20024;-81
2024/02/29 01:15:19;;;;;;;7.95;5.25;;;0.10;92.70;;;;;;5089893;28;20020;-80
2024/02/29 01:17:46;;;;;;;11.77;5.07;;;0.10;92.60;;;;;;5084087;28;20024;-82
2024/02/29 01:20:12;;;;;;;9.70;4.80;;;0.10;92.50;;;;;;5086296;28;20424;-81
2024/02/29 01:22:38;;;;;;;12.70;6.30;;;0.00;92.50;;;;;;5087573;28;20090;-81
2024/02/29 01:25:05;;;;;;;9.68;5.18;;;0.00;92.50;;;;;;5089885;28;20082;-79
2024/02/29 01:27:32;;;;;;;7.97;4.78;;;-0.10;92.50;;;;;;5098409;28;20054;-80
2024/02/29 01:29:58;;;;;;;10.63;4.43;;;-0.10;92.50;;;;;;5103373;28;20023;-80
2024/02/29 01:32:24;;;;;;;18.73;6.20;;;-0.10;92.60;;;;;;5101993;28;20400;-81
2024/02/29 01:34:50;;;;;;;9.00;5.57;;;-0.10;92.60;;;;;;5094210;28;20035;-80
2024/02/29 01:37:16;;;;;;;16.52;6.30;;;-0.10;92.60;;;;;;5094194;28;20054;-81
2024/02/29 01:39:41;;;;;;;10.25;6.25;;;-0.10;92.70;;;;;;5085657;28;20023;-81
2024/02/29 01:42:08;;;;;;;12.52;5.15;;;-0.10;92.70;;;;;;5093327;28;20044;-82
2024/02/29 01:44:41;;;;;;;12.68;5.28;;;-0.10;92.70;;;;;;5096166;28;20192;-81
2024/02/29 01:47:09;;;;;;;17.83;7.22;;;-0.20;92.70;;;;;;5094386;28;20077;-82
2024/02/29 01:49:35;;;;;;;11.90;5.68;;;-0.10;92.70;;;;;;5096093;28;20092;-82
2024/02/29 01:52:02;;;;;;;8.93;4.85;;;-0.10;92.70;;;;;;5098689;28;20074;-81
2024/02/29 01:54:27;;;;;;;13.15;6.20;;;-0.10;92.70;;;;;;5106198;28;20064;-81
2024/02/29 01:56:55;;;;;;;12.40;6.15;;;-0.10;92.70;;;;;;5108490;28;20036;-80
2024/02/29 01:59:21;;;;;;;;;;;-0.10;92.70;;;;;;5103850;28;20062;-81
2024/02/29 02:01:47;;;;;;;12.93;4.47;;;-0.20;92.60;;;;;;5095649;28;19911;-82
2024/02/29 02:04:13;;;;;;;6.90;4.85;;;-0.20;92.60;;;;;;5094037;28;20031;-83
2024/02/29 02:06:40;;;;;;;9.63;4.93;;;-0.20;93.00;;;;;;5094419;28;20077;-80
2024/02/29 02:09:06;;;;;;;12.27;6.00;;;-0.20;92.70;;;;;;5083025;28;20542;-81
2024/02/29 02:11:32;;;;;;;8.68;4.93;;;-0.20;92.70;;;;;;5089783;28;20028;-81
2024/02/29 02:13:57;;;;;;;13.00;7.18;;;-0.20;92.80;;;;;;5089422;28;20016;-81
2024/02/29 02:16:23;;;;;;;12.38;6.20;;;-0.20;92.80;;;;;;5081077;28;20035;-80
2024/02/29 02:18:49;;;;;;;5.63;3.75;;;-0.20;92.80;;;;;;5092895;28;20435;-83
2024/02/29 02:21:15;;;;;;;10.13;5.13;;;-0.20;92.80;;;;;;5095780;28;20550;-82
2024/02/29 02:23:41;;;;;;;8.45;4.95;;;-0.20;92.70;;;;;;5087952;28;20028;-81
2024/02/29 02:26:07;;;;;;;9.88;5.32;;;-0.10;92.70;;;;;;5093007;28;20381;-83
2024/02/29 02:28:32;;;;;;;11.38;6.07;;;-0.20;92.70;;;;;;5091512;28;20024;-82
2024/02/29 02:30:58;;;;;;;12.18;5.65;;;-0.20;92.70;;;;;;5094986;28;20032;-83
2024/02/29 02:33:24;;;;;;;12.93;5.85;;;-0.20;92.70;;;;;;5094916;28;20035;-84
2024/02/29 02:35:50;;;;;;;10.43;6.30;;;-0.20;92.80;;;;;;5094813;28;20012;-83
2024/02/29 02:38:16;;;;;;;13.05;5.50;;;-0.20;92.80;;;;;;5094405;28;20052;-82
2024/02/29 02:40:42;;;;;;;10.80;6.60;;;-0.30;92.80;;;;;;5087245;28;20021;-85
2024/02/29 02:43:07;;;;;;;9.25;6.72;;;-0.30;92.80;;;;;;5084270;28;20132;-82
2024/02/29 02:45:33;;;;;;;12.77;5.57;;;-0.30;92.90;;;;;;5093139;28;20097;-82
2024/02/29 02:47:59;;;;;;;9.18;5.18;;;-0.30;92.90;;;;;;5084530;28;20020;-82
2024/02/29 02:50:25;;;;;;;7.30;4.25;;;-0.30;92.90;;;;;;5095682;28;20024;-82
2024/02/29 02:52:51;;;;;;;15.20;5.78;;;-0.30;92.90;;;;;;5090780;28;20051;-83
2024/02/29 02:55:17;;;;;;;13.00;5.30;;;-0.30;92.90;;;;;;5089959;28;20473;-84
2024/02/29 02:57:45;;;;;;;11.32;5.25;;;-0.30;92.90;;;;;;5087118;28;20040;-82
2024/02/29 03:00:12;;;;;;;14.38;5.38;;;-0.30;93.00;;;;;;5082353;28;20410;-81
2024/02/29 03:02:41;;;;;;;10.15;6.28;;;-0.30;93.00;;;;;;5092258;28;20419;-80
2024/02/29 03:05:09;;;;;;;7.85;5.03;;;-0.30;92.90;;;;;;5091315;28;20023;-81
2024/02/29 03:07:34;;;;;;;;;;;-0.30;93.00;;;;;;5094344;28;20171;-82
2024/02/29 03:10:00;;;;;;;10.98;5.32;;;-0.30;92.90;;;;;;5091220;28;20015;-83
2024/02/29 03:12:26;;;;;;;11.15;6.20;;;-0.30;92.90;;;;;;5091708;28;20024;-82
2024/02/29 03:14:55;;;;;;;10.77;5.53;;;-0.30;93.00;;;;;;5085249;28;20027;-83
2024/02/29 03:17:21;;;;;;;9.43;5.53;;;-0.30;93.00;;;;;;5090785;28;20027;-82
2024/02/29 03:19:47;;;;;;;9.43;5.07;;;-0.40;93.10;;;;;;5094493;28;20016;-83
2024/02/29 03:22:13;;;;;;;9.35;4.50;;;-0.30;93.20;;;;;;5095075;28;20081;-82
2024/02/29 03:24:43;;;;;;;7.38;5.15;;;-0.30;93.20;;;;;;5091648;28;20026;-83
2024/02/29 03:27:10;;;;;;;13.45;5.63;;;-0.30;93.10;;;;;;5089588;28;20017;-81
2024/02/29 03:29:36;;;;;;;;;;;-0.30;93.10;;;;;;5093396;28;20553;-84
2024/02/29 03:32:02;;;;;;;8.48;5.15;;;-0.30;93.10;;;;;;5093108;28;19947;-83
2024/02/29 03:34:28;;;;;;;10.05;6.35;;;-0.30;93.10;;;;;;5095901;28;20024;-82
2024/02/29 03:36:53;;;;;;;10.60;5.90;;;-0.30;93.20;;;;;;5094385;28;20456;-83
2024/02/29 03:39:19;;;;;;;9.85;5.18;;;-0.40;93.20;;;;;;5093325;28;20024;-84
2024/02/29 03:41:45;;;;;;;11.48;5.30;;;-0.30;93.30;;;;;;5086667;28;20032;-81
2024/02/29 03:44:11;;;;;;;13.32;4.32;;;-0.40;93.20;;;;;;5091192;28;20051;-80
2024/02/29 03:46:37;;;;;;;9.73;5.28;;;-0.40;93.20;;;;;;5083876;28;20024;-82
2024/02/29 03:49:03;;;;;;;9.52;5.15;;;-0.40;93.30;;;;;;5087861;28;20036;-82
2024/02/29 03:51:29;;;;;;;10.52;6.15;;;-0.50;93.30;;;;;;5093663;28;20025;-80
2024/02/29 03:53:54;;;;;;;5.75;4.15;;;-0.50;93.40;;;;;;5098983;28;20104;-80
2024/02/29 03:56:20;;;;;;;10.15;5.40;;;-0.50;93.40;;;;;;5106393;28;20051;-82
2024/02/29 03:58:46;;;;;;;10.60;5.63;;;-0.50;93.40;;;;;;5095838;28;20421;-81
2024/02/29 04:01:12;;;;;;;13.38;5.35;;;-0.50;93.50;;;;;;5092915;28;20028;-83
2024/02/29 04:03:41;;;;;;;12.57;5.65;;;-0.50;93.50;;;;;;5088451;28;20128;-81
2024/02/29 04:06:07;;;;;;;13.45;5.82;;;-0.50;93.50;;;;;;5085111;28;20052;-81
2024/02/29 04:08:34;;;;;;;9.48;5.00;;;-0.50;93.50;;;;;;5092937;28;20028;-82
2024/02/29 04:11:00;;;;;;;12.40;7.82;;;-0.60;93.60;;;;;;5090340;28;20103;-81
2024/02/29 04:13:26;;;;;;;10.18;5.15;;;-0.60;93.60;;;;;;5091838;28;20078;-82
2024/02/29 04:15:52;;;;;;;12.82;5.22;;;-0.60;93.60;;;;;;5088213;28;20016;-84
2024/02/29 04:18:18;;;;;;;15.77;6.25;;;-0.60;93.70;;;;;;5084504;28;20024;-82
2024/02/29 04:20:44;;;;;;;10.77;4.75;;;-0.60;93.70;;;;;;5088275;28;20024;-82
2024/02/29 04:23:10;;;;;;;10.88;5.63;;;-0.60;93.60;;;;;;5087806;28;20032;-82
2024/02/29 04:25:36;;;;;;;8.32;4.15;;;-0.60;93.70;;;;;;5093233;28;20020;-82
2024/02/29 04:28:02;;;;;;;8.88;5.18;;;-0.60;93.70;;;;;;5086452;28;20055;-82
2024/02/29 04:30:29;;;;;;;11.18;5.95;;;-0.60;93.60;;;;;;5091616;28;20024;-84
2024/02/29 04:32:55;;;;;;;13.13;5.20;;;-0.60;93.60;;;;;;5093524;28;20125;-81
2024/02/29 04:35:21;;;;;;;9.30;6.55;;;-0.60;93.70;;;;;;5093069;28;20074;-83
2024/02/29 04:37:47;;;;;;;6.50;4.38;;;-0.60;93.70;;;;;;5091987;28;20068;-83
2024/02/29 04:40:13;;;;;;;7.85;4.93;;;-0.60;93.70;;;;;;5087932;28;20028;-82
2024/02/29 04:42:42;;;;;;;8.88;4.88;;;-0.60;93.70;;;;;;5085620;28;20044;-82
2024/02/29 04:45:08;;;;;;;10.32;6.00;;;-0.60;93.70;;;;;;5080243;28;20039;-84
2024/02/29 04:47:34;;;;;;;10.82;4.75;;;-0.50;93.70;;;;;;5090645;28;20024;-83
2024/02/29 04:50:00;;;;;;;10.45;5.47;;;-0.50;93.60;;;;;;5095350;28;20035;-83
2024/02/29 04:52:27;;;;;;;9.90;6.00;;;-0.40;93.60;;;;;;5106831;28;20012;-85
2024/02/29 04:54:53;;;;;;;12.88;5.55;;;-0.40;93.50;;;;;;5087340;28;20506;-84
2024/02/29 04:57:18;;;;;;;9.95;4.95;;;-0.40;93.40;;;;;;5089140;28;20054;-84
2024/02/29 04:59:44;;;;;;;7.55;4.78;;;-0.30;93.40;;;;;;5091255;28;20040;-83
2024/02/29 05:02:10;;;;;;;10.25;6.18;;;-0.30;93.40;;;;;;5084926;28;20032;-82
2024/02/29 05:04:37;;;;;;;7.40;3.58;;;-0.20;93.40;;;;;;5092202;28;20020;-83
2024/02/29 05:07:04;;;;;;;13.13;4.60;;;-0.20;93.30;;;;;;5092653;28;20019;-83
2024/02/29 05:09:29;;;;;;;11.33;5.63;;;-0.20;93.20;;;;;;5093561;28;20046;-84
2024/02/29 05:11:55;;;;;;;12.23;6.55;;;-0.20;93.10;;;;;;5093068;28;20036;-84
2024/02/29 05:14:21;;;;;;;8.68;4.95;;;-0.20;93.10;;;;;;5092669;28;20534;-85
2024/02/29 05:16:47;;;;;;;9.32;4.50;;;-0.10;93.10;;;;;;5083350;28;20021;-82
2024/02/29 05:19:13;;;;;;;9.50;5.45;;;-0.10;93.10;;;;;;5088072;28;20082;-83
2024/02/29 05:21:40;;;;;;;9.80;5.15;;;-0.10;92.90;;;;;;5087282;28;20431;-83
2024/02/29 05:24:05;;;;;;;8.40;5.35;;;0.00;92.80;;;;;;5087790;28;20432;-83
2024/02/29 05:26:31;;;;;;;11.98;4.78;;;0.00;92.70;;;;;;5084670;28;20015;-83
2024/02/29 05:28:57;;;;;;;8.73;5.10;;;0.10;92.80;;;;;;5086837;28;20089;-86
2024/02/29 05:31:23;;;;;;;8.73;5.07;;;0.10;92.70;;;;;;5091285;28;20125;-84
2024/02/29 05:33:49;;;;;;;8.70;4.00;;;0.20;92.60;;;;;;5090163;28;20077;-83
2024/02/29 05:36:15;;;;;;;10.38;5.28;;;0.20;92.50;;;;;;5092389;28;20028;-84
2024/02/29 05:38:41;;;;;;;8.55;5.05;;;0.30;92.50;;;;;;5083004;28;20039;-82
2024/02/29 05:41:06;;;;;;;16.63;5.57;;;0.40;92.50;;;;;;5093797;28;20024;-83
2024/02/29 05:43:34;;;;;;;10.93;5.57;;;0.50;92.50;;;;;;5092822;28;20111;-84
2024/02/29 05:46:00;;;;;;;9.85;5.15;;;0.60;92.20;;;;;;5100237;28;20780;-83
2024/02/29 05:48:26;;;;;;;8.73;4.60;;;0.60;92.10;;;;;;5087076;28;20176;-81
2024/02/29 05:50:51;;;;;;;10.05;5.65;;;0.60;92.00;;;;;;5089729;28;20023;-85
2024/02/29 05:53:17;;;;;;;10.10;5.53;;;0.70;91.90;;;;;;5091499;28;20532;-84
2024/02/29 05:55:43;;;;;;;6.97;4.47;;;0.70;92.00;;;;;;5085242;28;20530;-82
2024/02/29 05:58:09;;;;;;;8.25;5.10;;;0.80;91.80;;;;;;5091621;28;20052;-86
2024/02/29 06:00:35;;;;;;;9.75;5.32;;;0.80;91.80;;;;;;5090827;28;20027;-83
2024/02/29 06:03:00;;;;;;;11.90;5.85;;;0.90;91.70;;;;;;5092072;28;20042;-82
2024/02/29 06:05:28;;;;;;;12.63;5.75;;;0.90;91.70;;;;;;5083690;28;20488;-85
2024/02/29 06:07:54;;;;;;;11.35;5.07;;;0.90;91.50;;;;;;5090629;28;20032;-84
2024/02/29 06:10:20;;;;;;;8.13;5.43;;;1.00;91.60;;;;;;5092865;28;20537;-82
2024/02/29 06:12:46;;;;;;;11.37;5.10;;;1.10;91.50;;;;;;5093556;28;20397;-84
2024/02/29 06:15:12;;;;;;;17.70;7.82;;;1.10;91.30;;;;;;5095183;28;20145;-83
2024/02/29 06:17:38;;;;;;;9.23;5.18;;;1.20;91.40;;;;;;5093670;28;20127;-84
2024/02/29 06:20:10;;;;;;;14.85;7.03;;;1.30;91.30;;;;;;5086853;28;20020;-83
2024/02/29 06:22:36;;;;;;;15.43;6.47;;;1.40;91.00;;;;;;5096412;28;20044;-84
2024/02/29 06:25:04;;;;;;;12.50;5.60;;;1.50;91.00;;;;;;5094696;28;20102;-83
2024/02/29 06:27:33;;;;;;;11.73;6.43;;;1.60;90.90;;;;;;5094585;28;20028;-85
2024/02/29 06:29:59;;;;;;;10.00;5.57;;;1.70;90.70;;;;;;5094740;28;20023;-83
2024/02/29 06:32:25;;;;;;;8.68;5.70;;;1.80;90.70;;;;;;5095396;28;20035;-84
2024/02/29 06:34:51;;;;;;;8.55;5.97;;;1.90;90.50;;;;;;5096503;28;20028;-84
2024/02/29 06:37:16;;;;;;;9.20;5.63;;;1.90;90.40;;;;;;5095220;28;20553;-84
2024/02/29 06:39:42;;;;;;;10.27;5.90;;;1.90;90.30;;;;;;5096531;28;20484;-81
2024/02/29 06:42:08;;;;;;;10.77;5.57;;;1.90;90.20;;;;;;5095006;28;20028;-83
2024/02/29 06:44:34;;;;;;;7.68;4.35;;;1.90;90.20;;;;;;5095808;28;20028;-84
2024/02/29 06:47:00;;;;;;;10.38;5.60;;;1.80;90.10;;;;;;5096640;28;20028;-84
2024/02/29 06:49:26;;;;;;;11.32;6.32;;;1.90;90.20;;;;;;5093523;28;20028;-83
2024/02/29 06:51:52;;;;;;;10.82;5.05;;;2.00;90.00;;;;;;5094641;28;20023;-82
2024/02/29 06:54:18;;;;;;;11.57;5.72;;;2.00;90.30;;;;;;5093492;28;20032;-81
2024/02/29 06:56:47;;;;;;;9.73;6.10;;;2.10;90.00;;;;;;5094453;28;20032;-82
2024/02/29 06:59:12;;;;;;;13.82;5.38;;;2.20;90.00;;;;;;5094204;28;20020;-83
2024/02/29 07:01:38;;;;;;;12.10;5.93;;;2.40;89.60;;;;;;5097600;28;20012;-82
2024/02/29 07:04:06;;;;;;;12.98;6.03;;;2.50;89.00;;;;;;5097470;28;20389;-84
2024/02/29 07:06:33;;;;;;;11.23;5.93;;;2.40;88.00;;;;;;5098211;28;20019;-81
2024/02/29 07:08:59;;;;;;;10.75;5.55;;;2.40;88.20;;;;;;5102149;28;20069;-84
2024/02/29 07:11:25;;;;;;;11.10;5.43;;;2.40;88.30;;;;;;5094914;28;20032;-83
2024/02/29 07:13:51;;;;;;;18.80;6.82;;;2.60;88.40;;;;;;5093985;28;20016;-85
2024/02/29 07:16:20;;;;;;;14.40;6.38;;;2.70;88.00;;;;;;5095837;28;20035;-84
2024/02/29 07:18:46;;;;;;;13.32;6.13;;;3.00;87.50;;;;;;5101498;28;20066;-84
2024/02/29 07:21:12;;;;;;;11.48;5.90;;;3.00;86.40;;;;;;5109504;28;20023;-85
2024/02/29 07:23:38;;;;;;;9.18;5.82;;;3.10;86.70;;;;;;5093672;28;20044;-82
2024/02/29 07:26:04;;;;;;;14.77;5.20;;;3.20;86.60;;;;;;5094820;28;20077;-85
2024/02/29 07:28:31;;;;;;;10.77;5.82;;;3.20;85.90;;;;;;5094151;28;20119;-84
2024/02/29 07:30:57;;;;;;;9.32;6.53;;;3.20;85.70;;;;;;5095697;28;20020;-84
2024/02/29 07:33:24;;;;;;;11.82;5.70;;;3.40;85.30;;;;;;5096840;28;20024;-84
2024/02/29 07:35:50;;;;;;;11.93;5.95;;;3.50;85.00;;;;;;5097859;28;20016;-82
2024/02/29 07:38:16;;;;;;;12.52;6.18;;;3.60;84.40;;;;;;5092550;28;20492;-84
2024/02/29 07:40:42;;;;;;;12.57;5.15;;;3.60;83.80;;;;;;5095288;28;20031;-84
2024/02/29 07:43:08;;;;;;;9.77;5.45;;;3.60;84.40;;;;;;5094188;28;20444;-83
2024/02/29 07:46:13;;;;;;;10.05;7.18;;;3.60;83.30;;;;;;5094124;28;20022;-83
2024/02/29 07:48:39;;;;;;;16.77;7.80;;;3.80;84.60;;;;;;5063382;28;20036;-82
2024/02/29 07:51:05;;;;;;;15.70;8.50;;;4.20;83.50;;;;;;5092200;28;20633;-82
2024/02/29 07:54:03;;;;;;;10.00;5.70;;;4.40;82.80;;;;;;5094322;28;20064;-83
2024/02/29 07:56:50;;;;;;;13.07;6.45;;;4.50;82.20;;;;;;5082878;28;20123;-83
2024/02/29 07:59:26;;;;;;;12.93;6.03;;;4.50;81.80;;;;;;5108585;28;20032;-84
2024/02/29 08:06:10;;;;;;;8.68;5.38;;;4.00;81.20;;;;;;5086602;28;20043;-84
2024/02/29 08:08:39;;;;;;;17.95;6.95;;;3.90;81.80;;;;;;5010325;28;20033;-84
2024/02/29 08:11:07;;;;;;;13.05;6.47;;;3.50;82.00;;;;;;5031368;28;20033;-87
2024/02/29 08:13:33;;;;;;;10.57;6.28;;;3.30;83.40;;;;;;5014660;28;20445;-83
2024/02/29 08:15:59;;;;;;;14.50;6.90;;;3.40;83.50;;;;;;5014573;28;20021;-86
2024/02/29 08:18:46;;;;;;;9.07;5.68;;;3.60;83.80;;;;;;5031200;28;20079;-83
2024/02/29 08:21:11;;;;;;;12.98;5.95;;;3.90;82.90;;;;;;5030100;28;20033;-83
2024/02/29 08:23:37;;;;;;;9.98;5.20;;;4.00;82.30;;;;;;5031771;28;20083;-83
2024/02/29 08:26:09;;;;;;;12.45;7.00;;;4.00;82.10;;;;;;5031271;28;20303;-87
2024/02/29 08:28:37;;;;;;;11.27;5.38;;;4.00;82.30;;;;;;5014364;28;20034;-84
2024/02/29 08:31:03;;;;;;;12.45;6.53;;;4.20;81.70;;;;;;5034585;28;20026;-83
2024/02/29 08:33:29;;;;;;;13.57;7.18;;;4.10;82.00;;;;;;5036048;28;20029;-85
2024/02/29 08:35:55;;;;;;;7.68;6.32;;;4.50;81.80;;;;;;5031829;28;20029;-85
2024/02/29 08:38:21;;;;;;;16.80;7.83;;;4.70;80.80;;;;;;5029995;28;20042;-85
2024/02/29 08:40:47;;;;;;;12.07;6.68;;;4.90;80.70;;;;;;5031590;28;20267;-84
2024/02/29 08:43:13;;;;;;;15.55;7.10;;;5.10;80.00;;;;;;5030868;28;20033;-87
2024/02/29 08:45:39;;;;;;;15.15;6.50;;;5.10;79.20;;;;;;5079469;28;20040;-84
2024/02/29 08:48:05;;;;;;;9.30;5.82;;;5.20;79.30;;;;;;5092517;28;20789;-85
2024/02/29 08:50:31;;;;;;;13.45;7.30;;;5.20;78.70;;;;;;5090818;28;20032;-83
2024/02/29 08:52:56;;;;;;;10.00;4.90;;;5.10;78.70;;;;;;5090559;28;20405;-85
2024/02/29 08:55:22;;;;;;;14.90;6.80;;;5.00;78.50;;;;;;5090762;28;20112;-83
2024/02/29 08:57:48;;;;;;;15.20;7.22;;;4.90;79.20;;;;;;5092878;28;20394;-85
2024/02/29 09:00:16;;;;;;;11.85;7.13;;;5.00;79.40;;;;;;5092244;28;20024;-87
2024/02/29 09:02:42;;;;;;;9.02;5.03;;;4.90;79.30;;;;;;5092382;28;20035;-86
2024/02/29 09:05:08;;;;;;;16.45;7.63;;;4.90;78.90;;;;;;5092500;28;20028;-83
2024/02/29 09:07:34;;;;;;;17.02;8.00;;;5.00;79.40;;;;;;5092445;28;20028;-85
2024/02/29 09:10:00;;;;;;;12.90;6.88;;;5.30;79.30;;;;;;5091181;28;20043;-85
2024/02/29 09:12:25;;;;;;;14.10;6.63;;;5.50;77.90;;;;;;5092345;28;20059;-86
2024/02/29 09:14:51;;;;;;;14.45;7.32;;;5.30;77.90;;;;;;5092844;28;20015;-85
2024/02/29 09:17:17;;;;;;;9.00;5.43;;;5.20;78.50;;;;;;5092827;28;20020;-84
2024/02/29 09:19:43;;;;;;;14.57;8.15;;;5.20;78.40;;;;;;5093235;28;20028;-85
2024/02/29 09:22:09;;;;;;;12.38;7.63;;;5.00;78.50;;;;;;5093393;28;20028;-86
2024/02/29 09:24:35;;;;;;;19.63;6.85;;;4.90;79.20;;;;;;5091308;28;20027;-86
2024/02/29 09:27:01;;;;;;;17.15;6.20;;;4.90;78.90;;;;;;5092860;28;20050;-86
2024/02/29 09:29:26;;;;;;;17.45;7.50;;;4.90;79.40;;;;;;5090807;28;20036;-87
2024/02/29 09:31:52;;;;;;;35.25;5.63;;;4.90;79.20;;;;;;5092218;28;20023;-85
2024/02/29 09:34:18;;;;;;;13.40;5.45;;;4.90;78.80;;;;;;5092129;28;20546;-84
2024/02/29 09:36:45;;;;;;;14.18;8.63;;;4.80;78.80;;;;;;5091686;28;20020;-85
2024/02/29 09:39:11;;;;;;;11.13;6.25;;;4.90;79.60;;;;;;5092413;28;20024;-87
2024/02/29 09:41:37;;;;;;;12.02;5.47;;;4.90;78.20;;;;;;5092029;28;20426;-87
2024/02/29 09:44:04;;;;;;;19.20;9.02;;;4.80;78.70;;;;;;5092462;28;20036;-87
2024/02/29 09:46:30;;;;;;;18.10;9.45;;;4.70;79.20;;;;;;5094996;28;20055;-85
2024/02/29 09:48:57;;;;;;;15.57;7.05;;;4.90;79.70;;;;;;5095842;28;20039;-87
2024/02/29 09:51:23;;;;;;;15.07;6.47;;;4.90;78.80;;;;;;5095948;28;20065;-86
2024/02/29 09:53:53;;;;;;;7.78;5.15;;;4.90;79.20;;;;;;5094696;28;20124;-84
2024/02/29 09:56:25;;;;;;;15.98;5.68;;;5.10;78.80;;;;;;5095050;28;20473;-86
2024/02/29 09:58:55;;;;;;;12.38;7.20;;;5.00;78.10;;;;;;5112239;28;20488;-87
2024/02/29 10:01:22;;;;;;;14.68;7.70;;;5.00;78.70;;;;;;5097144;28;20017;-86
2024/02/29 10:03:48;;;;;;;14.93;5.83;;;5.20;78.50;;;;;;5095534;28;20091;-85
2024/02/29 10:06:14;;;;;;;20.10;9.18;;;5.30;77.90;;;;;;5095747;28;20260;-86
2024/02/29 10:08:40;;;;;;;19.13;9.68;;;5.40;78.50;;;;;;5096668;28;20028;-87
2024/02/29 10:11:09;;;;;;;14.07;5.60;;;5.80;78.20;;;;;;5096011;28;20020;-85
2024/02/29 10:13:41;;;;;;;11.23;6.03;;;6.00;76.00;;;;;;5096577;28;20070;-85
2024/02/29 10:16:08;;;;;;;18.02;8.07;;;6.20;76.00;;;;;;5097973;28;20016;-86
2024/02/29 10:18:36;;;;;;;15.98;8.00;;;6.10;76.20;;;;;;5104608;28;20088;-85
2024/02/29 10:21:16;;;;;;;10.93;6.18;;;6.20;75.70;;;;;;5114641;28;20089;-84
2024/02/29 10:23:43;;;;;;;11.63;7.35;;;6.20;74.00;;;;;;5121260;28;20390;-86
2024/02/29 10:26:09;;;;;;;12.20;7.75;;;6.00;75.20;;;;;;5095733;28;20016;-87
2024/02/29 10:28:35;;;;;;;16.20;9.30;;;6.00;75.70;;;;;;5095566;28;20454;-87
2024/02/29 10:31:01;;;;;;;10.05;4.85;;;5.90;74.90;;;;;;5094591;28;20020;-87
2024/02/29 10:33:28;;;;;;;16.83;6.95;;;5.60;74.90;;;;;;5094094;28;20104;-85
2024/02/29 10:35:54;;;;;;;11.97;7.47;;;5.20;75.90;;;;;;5094627;28;20021;-84
2024/02/29 10:38:21;;;;;;;8.23;4.10;;;5.20;77.10;;;;;;5096761;28;20048;-84
2024/02/29 10:40:51;;;;;;;14.48;6.25;;;5.10;76.70;;;;;;5096335;28;20082;-85
2024/02/29 10:43:22;;;;;;;11.77;7.40;;;4.90;77.30;;;;;;5095132;28;20035;-85
2024/02/29 10:45:50;;;;;;;13.98;6.47;;;5.00;78.10;;;;;;5095280;28;20099;-87
2024/02/29 10:48:29;;;;;;;12.88;7.13;;;5.00;77.40;;;;;;5111280;28;20385;-88
2024/02/29 10:51:16;;;;;;;14.93;7.00;;;4.90;77.60;;;;;;5093965;28;20777;-84
2024/02/29 10:53:48;;;;;;;;;;;4.80;78.10;;;;;;5097525;28;20059;-86
2024/02/29 10:56:33;;;;;;;8.63;5.93;;;4.90;78.40;;;;;;5096251;28;20440;-85
2024/02/29 10:59:07;;;;;;;11.25;7.95;;;4.90;78.00;;;;;;5096312;28;20070;-84
2024/02/29 11:01:34;;;;;;;10.85;6.38;;;5.10;78.60;;;;;;5094169;28;20024;-86
2024/02/29 11:04:01;;;;;;;10.85;5.88;;;5.40;77.90;;;;;;5093576;28;20066;-88
2024/02/29 11:06:29;;;;;;;13.30;6.03;;;5.40;76.10;;;;;;5094032;28;20073;-86
2024/02/29 11:08:56;;;;;;;11.10;6.90;;;5.30;76.50;;;;;;5118304;28;20388;-86
2024/02/29 11:11:28;;;;;;;8.90;6.07;;;5.40;76.60;;;;;;5098748;28;20020;-86
2024/02/29 11:14:07;;;;;;;12.57;7.80;;;5.50;76.30;;;;;;5094977;28;20103;-85
2024/02/29 11:16:38;;;;;;;16.27;7.15;;;5.50;76.00;;;;;;5083422;28;20028;-86
2024/02/29 11:19:06;;;;;;;9.57;6.05;;;5.60;75.80;;;;;;5110328;28;20046;-87
2024/02/29 11:21:33;;;;;;;13.45;8.23;;;5.50;75.20;;;;;;5094808;28;20060;-85
2024/02/29 11:24:09;;;;;;;12.65;7.05;;;5.30;76.00;;;;;;5109980;28;20040;-86
2024/02/29 11:26:38;;;;;;;18.47;6.60;;;5.10;76.00;;;;;;5081114;28;20016;-85
2024/02/29 11:29:30;;;;;;;10.98;7.22;;;5.20;76.70;;;;;;5093606;28;20093;-86
2024/02/29 11:31:57;;;;;;;15.65;7.93;;;5.20;76.80;;;;;;5085123;28;20032;-84
2024/02/29 11:34:23;;;;;;;15.27;10.20;;;5.30;76.50;;;;;;5102506;28;20024;-85
2024/02/29 11:36:50;;;;;;;18.95;8.73;;;5.40;76.60;;;;;;5104684;28;20047;-86
2024/02/29 11:39:22;;;;;;;16.98;7.63;;;5.50;75.80;;;;;;5113695;28;20051;-85
2024/02/29 11:42:08;;;;;;;16.38;6.85;;;5.40;75.60;;;;;;5092046;28;20024;-86
2024/02/29 11:44:34;;;;;;;17.70;8.52;;;5.30;75.80;;;;;;5093332;28;20455;-86
2024/02/29 11:47:00;;;;;;;15.52;9.00;;;5.40;76.50;;;;;;5092209;28;20032;-85
2024/02/29 11:49:26;;;;;;;19.33;10.35;;;5.60;76.20;;;;;;5093062;28;20126;-83
2024/02/29 11:51:54;;;;;;;17.05;10.52;;;5.70;76.20;;;;;;5093102;28;20326;-84
2024/02/29 11:54:20;;;;;;;16.08;9.80;;;5.80;76.10;;;;;;5092385;28;20027;-86
2024/02/29 11:56:47;;;;;;;22.52;11.27;;;6.00;75.60;;;;;;5093917;28;20028;-84
2024/02/29 11:59:15;;;;;;;14.88;8.75;;;5.90;75.20;;;;;;5091751;28;20077;-83
2024/02/29 12:01:42;;;;;;;19.88;10.30;;;5.80;74.90;;;;;;5093902;28;20035;-85
2024/02/29 12:04:08;;;;;;;17.85;10.38;;;5.60;75.60;;;;;;5093858;28;20028;-85
2024/02/29 12:06:35;;;;;;;17.67;9.45;;;5.60;75.60;;;;;;5102966;28;20031;-85
2024/02/29 12:09:02;;;;;;;15.05;8.25;;;5.60;75.80;;;;;;5093284;28;20397;-84
2024/02/29 12:11:29;;;;;;;23.27;10.45;;;5.50;75.80;;;;;;5093331;28;20024;-86
2024/02/29 12:13:55;;;;;;;20.58;10.27;;;5.50;76.20;;;;;;5094179;28;20077;-84
2024/02/29 12:16:22;;;;;;;21.00;10.25;;;5.70;76.40;;;;;;5079529;28;20048;-84
2024/02/29 12:18:47;;;;;;;21.25;10.75;;;6.10;75.90;;;;;;5093250;28;20050;-85
2024/02/29 12:21:13;;;;;;;15.45;10.32;;;6.40;75.10;;;;;;5093204;28;20024;-83
2024/02/29 12:23:39;;;;;;;24.48;11.30;;;6.50;74.30;;;;;;5092710;28;20036;-86
2024/02/29 12:26:10;;;;;;;12.18;9.18;;;6.60;74.30;;;;;;5092662;28;20024;-84
2024/02/29 12:28:36;;;;;;;16.15;9.40;;;6.70;74.00;;;;;;5093816;28;20088;-87
2024/02/29 12:31:06;;;;;;;17.63;11.82;;;6.60;73.30;;;;;;5093501;28;20020;-85
2024/02/29 12:33:32;;;;;;;17.48;9.90;;;6.40;73.60;;;;;;5093978;28;20031;-83
2024/02/29 12:36:00;;;;;;;18.30;12.30;;;6.40;74.10;;;;;;5092959;28;20043;-83
2024/02/29 12:38:26;;;;;;;;;;;6.40;74.10;;;;;;5093547;28;20048;-84
2024/02/29 12:40:52;;;;;;;20.50;10.38;;;6.50;74.40;;;;;;5092368;28;19995;-84
2024/02/29 12:43:19;;;;;;;19.90;10.73;;;6.40;73.70;;;;;;5091078;28;20173;-84
2024/02/29 12:45:45;;;;;;;20.95;11.02;;;6.30;74.00;;;;;;5091210;28;20024;-85
2024/02/29 12:48:11;;;;;;;16.27;9.25;;;6.20;74.20;;;;;;5092458;28;20028;-83
2024/02/29 12:50:38;;;;;;;14.93;9.40;;;6.20;73.70;;;;;;5092778;28;20023;-84
2024/02/29 12:53:04;;;;;;;17.70;9.75;;;6.00;74.20;;;;;;5093365;28;20130;-87